Wautoma, WI

4:23 AM CDT on September 03, 2015 (GMT -0500)
RAWS | | Change Station
CLOSE
Current Station
Personal Weather Station
Location: Wautoma, WI
Elevation: 856 ft
Nearby Weather Stations

Elev 856 ft 44.06 °N, 89.29 °W | Updated 1 hour ago

Scattered Clouds
Scattered Clouds
69.0 °F
Feels Like 69.0 °F
N
0.0
Wind Variable Wind from North
Gusts 2.0 mph

Today
High -- | Low -- °F
--% Chance of Precip.
Yesterday
High -- | Low -- °F
Precip. -- in
6:22 AM 7:29 PM
Waning Gibbous, 72% visible
Pressure 29.89 in
Visibility 6.0 miles
Clouds Scattered Clouds 4000 ft
Dew Point 68.0 °F
Humidity 95%
Rainfall in
Snow Depth Not available.
UV 0 out of 12
Pollen 10.00 out of 12
Air Quality Not available.
Flu Activity Not available.
METAR KY50 030856Z AUTO 00000KT 6SM BR SCT040 21/21 A2991 RMK AO2 TSNO 53001 60000 T02110211 SLP120
Pressure 29.89 in
Visibility 6.0 miles
Clouds Scattered Clouds 4000 ft
Dew Point 68.0 °F
Humidity 95%
Rainfall in
Snow Depth Not available.
UV 0 out of 12
Pollen 10.00 out of 12
Air Quality Not available.
Flu Activity Not available.
METAR KY50 030856Z AUTO 00000KT 6SM BR SCT040 21/21 A2991 RMK AO2 TSNO 53001 60000 T02110211 SLP120

10-Day Weather Forecast

×

Almanac

Astronomy

Sep. 03, 2015 Rise Set
Actual Time
Civil Twilight
Nautical Twilight
Astronomical Twilight
Moon
Length of Visible Light
Length of Day
Tomorrow will be .
, % of the Moon is Illuminated

Today's Extremes

State Highs State Lows

Community

WunderPhotos

Upload Photos

1,851,922 photos uploaded!

WunderBlogs® & News

Nearby

Air Quality

  Air Quality AQ Index Pollutant
Not available.

Snow Depth

Station Depth Elevation

Earthquake Activity

City Distance Mag. Time & Date
Minimum magnitude displayed is 2.5.

Coastal Water Temperatures

Place Temperature

Stations

Nearby Weather Stations

Station Location Temp. Windchill Dew Point Humidity Wind Precip. Elev Updated Type